Time;durP1;ratioP1;P1;durP2;ratioP2;P2;SDS_P1;SDS_P2;PMS_P1;PMS_P2;Temp;Humidity;BMP_temperature;BMP_pressure;BME280_temperature;BME280_humidity;BME280_pressure;Samples;Min_cycle;Max_cycle;Signal;HPM_P1;HPM_P2
2023/12/13 00:01:28;;;;;;;40.65;21.23;;;;;;;6.49;100.00;99662.03;4931515;29;20058;-77
2023/12/13 00:03:56;;;;;;;41.83;19.95;;;;;;;6.49;100.00;99656.81;4950651;29;20055;-78
2023/12/13 00:06:23;;;;;;;40.42;19.52;;;;;;;6.49;100.00;99656.81;4945211;29;20058;-77
2023/12/13 00:08:51;;;;;;;39.25;19.83;;;;;;;6.49;100.00;99654.19;4885710;29;20073;-77
2023/12/13 00:11:18;;;;;;;38.22;18.85;;;;;;;6.49;100.00;99646.34;4951905;29;20055;-78
2023/12/13 00:13:46;;;;;;;40.05;18.80;;;;;;;6.50;100.00;99629.75;4912973;28;20233;-77
2023/12/13 00:16:13;;;;;;;39.95;19.95;;;;;;;6.51;100.00;99634.13;4917972;29;20058;-77
2023/12/13 00:18:41;;;;;;;43.38;20.73;;;;;;;6.50;100.00;99634.13;4947439;29;20046;-78
2023/12/13 00:21:09;;;;;;;39.50;20.40;;;;;;;6.50;100.00;99626.25;4933168;29;20058;-77
2023/12/13 00:23:36;;;;;;;39.97;18.73;;;;;;;6.50;100.00;99621.88;4904389;29;20043;-77
2023/12/13 00:26:04;;;;;;;38.83;18.02;;;;;;;6.51;100.00;99617.56;4916443;29;20070;-77
2023/12/13 00:28:33;;;;;;;38.28;19.20;;;;;;;6.51;100.00;99617.56;4926520;29;20054;-79
2023/12/13 00:31:00;;;;;;;36.08;18.17;;;;;;;6.51;100.00;99618.41;4927225;29;20059;-77
2023/12/13 00:33:28;;;;;;;37.10;19.30;;;;;;;6.52;100.00;99614.94;4929955;29;20048;-77
2023/12/13 00:35:55;;;;;;;40.47;19.13;;;;;;;6.51;100.00;99613.19;4921374;29;20044;-78
2023/12/13 00:38:23;;;;;;;40.38;18.52;;;;;;;6.51;100.00;99615.78;4944948;29;20051;-77
2023/12/13 00:40:50;;;;;;;42.38;18.50;;;;;;;6.53;100.00;99608.81;4890239;29;20459;-77
2023/12/13 00:43:18;;;;;;;37.60;18.55;;;;;;;6.53;100.00;99611.44;4929093;29;20062;-77
2023/12/13 00:45:45;;;;;;;31.13;16.38;;;;;;;6.53;100.00;99616.66;4907829;29;20460;-77
2023/12/13 00:48:13;;;;;;;37.53;18.42;;;;;;;6.54;100.00;99615.81;4915041;29;20059;-77
2023/12/13 00:50:40;;;;;;;40.28;16.65;;;;;;;6.54;100.00;99617.53;4912638;29;20066;-78
2023/12/13 00:53:07;;;;;;;31.95;16.05;;;;;;;6.54;100.00;99614.91;4933232;29;20054;-78
2023/12/13 00:55:35;;;;;;;35.92;16.50;;;;;;;6.53;100.00;99616.66;4903517;29;20054;-77
2023/12/13 00:58:02;;;;;;;36.13;16.73;;;;;;;6.53;100.00;99613.19;4950482;29;20065;-77
2023/12/13 01:00:30;;;;;;;34.03;16.35;;;;;;;6.53;100.00;99611.44;4905594;29;20043;-78
2023/12/13 01:02:57;;;;;;;35.63;15.55;;;;;;;6.53;100.00;99616.66;4928284;29;20469;-76
2023/12/13 01:05:25;;;;;;;34.78;16.40;;;;;;;6.53;100.00;99616.66;4923015;29;20046;-76
2023/12/13 01:07:52;;;;;;;26.98;15.43;;;;;;;6.52;100.00;99609.72;4903261;29;20051;-76
2023/12/13 01:10:20;;;;;;;27.38;15.27;;;;;;;6.52;100.00;99620.19;4866494;29;20059;-78
2023/12/13 01:12:47;;;;;;;23.08;13.40;;;;;;;6.53;100.00;99623.66;4917122;29;20043;-77
2023/12/13 01:15:15;;;;;;;27.83;15.35;;;;;;;6.52;100.00;99622.78;4889737;29;20052;-77
2023/12/13 01:17:43;;;;;;;31.83;15.48;;;;;;;6.53;100.00;99629.75;4932374;29;20420;-77
2023/12/13 01:20:11;;;;;;;37.67;15.65;;;;;;;6.53;100.00;99627.13;4912120;29;20065;-77
2023/12/13 01:22:38;;;;;;;31.58;15.52;;;;;;;6.53;100.00;99634.13;4947906;29;20043;-77
2023/12/13 01:25:06;;;;;;;33.08;15.85;;;;;;;6.52;100.00;99637.59;4929915;29;20051;-78
2023/12/13 01:27:33;;;;;;;33.70;15.18;;;;;;;6.53;100.00;99635.00;4912883;29;20047;-77
2023/12/13 01:30:03;;;;;;;34.90;15.82;;;;;;;6.51;100.00;99634.13;4895210;28;20055;-77
2023/12/13 01:32:30;;;;;;;32.10;14.90;;;;;;;6.52;100.00;99635.88;4899888;29;20062;-77
2023/12/13 01:34:58;;;;;;;29.83;14.95;;;;;;;6.52;100.00;99634.97;4898414;29;20073;-77
2023/12/13 01:37:26;;;;;;;33.35;15.32;;;;;;;6.52;100.00;99641.13;4916912;29;20494;-77
2023/12/13 01:39:56;;;;;;;33.58;15.38;;;;;;;6.52;100.00;99645.44;4929757;29;20044;-77
2023/12/13 01:42:24;;;;;;;30.38;15.23;;;;;;;6.53;100.00;99632.38;4873942;29;20047;-78
2023/12/13 01:44:51;;;;;;;30.42;15.90;;;;;;;6.53;100.00;99636.75;4926132;29;20074;-78
2023/12/13 01:47:19;;;;;;;28.75;15.80;;;;;;;6.53;100.00;99637.59;4926369;29;20043;-78
2023/12/13 01:49:46;;;;;;;32.55;16.92;;;;;;;6.52;100.00;99630.66;4950664;28;20043;-78
2023/12/13 01:52:14;;;;;;;28.30;14.65;;;;;;;6.52;100.00;99632.38;4946271;28;20548;-78
2023/12/13 01:54:43;;;;;;;29.20;13.82;;;;;;;6.52;100.00;99637.59;4932853;29;20412;-78
2023/12/13 01:57:13;;;;;;;29.10;15.32;;;;;;;6.51;100.00;99636.72;4921302;29;20047;-78
2023/12/13 01:59:41;;;;;;;24.77;14.57;;;;;;;6.51;100.00;99636.72;4929771;29;20385;-77
2023/12/13 02:02:10;;;;;;;29.50;14.32;;;;;;;6.52;100.00;99640.22;4904809;29;20186;-78
2023/12/13 02:04:38;;;;;;;29.25;15.82;;;;;;;6.51;100.00;99628.88;4932592;29;20046;-77
2023/12/13 02:07:05;;;;;;;35.45;16.30;;;;;;;6.52;100.00;99634.97;4937917;29;20058;-76
2023/12/13 02:09:33;;;;;;;28.77;15.15;;;;;;;6.52;100.00;99630.66;4931514;29;20054;-77
2023/12/13 02:12:00;;;;;;;26.40;14.73;;;;;;;6.52;100.00;99630.66;4926586;29;20051;-77
2023/12/13 02:14:28;;;;;;;31.23;15.85;;;;;;;6.52;100.00;99638.50;4894575;29;20046;-77
2023/12/13 02:16:55;;;;;;;35.95;17.33;;;;;;;6.53;100.00;99629.75;4887484;29;20077;-78
2023/12/13 02:19:23;;;;;;;33.20;16.05;;;;;;;6.53;100.00;99637.59;4937851;29;20043;-77
2023/12/13 02:21:50;;;;;;;31.67;17.73;;;;;;;6.55;100.00;99645.47;4931489;29;20074;-77
2023/12/13 02:24:22;;;;;;;37.78;18.65;;;;;;;6.54;100.00;99630.63;4914359;29;20082;-78
2023/12/13 02:26:50;;;;;;;31.75;17.05;;;;;;;6.54;100.00;99639.38;4927058;29;20039;-77
2023/12/13 02:29:17;;;;;;;32.67;18.55;;;;;;;6.55;100.00;99632.38;4908388;29;20054;-77
2023/12/13 02:31:45;;;;;;;36.17;19.38;;;;;;;6.55;100.00;99624.53;4948713;29;20058;-78
2023/12/13 02:34:13;;;;;;;35.50;19.05;;;;;;;6.57;100.00;99635.88;4890457;29;20441;-77
2023/12/13 02:36:44;;;;;;;35.28;17.85;;;;;;;6.57;100.00;99630.63;4901053;29;20062;-78
2023/12/13 02:39:12;;;;;;;34.47;17.65;;;;;;;6.57;100.00;99623.63;4946094;29;20043;-78
2023/12/13 02:41:41;;;;;;;37.30;18.95;;;;;;;6.58;100.00;99629.78;4912861;29;20054;-77
2023/12/13 02:44:08;;;;;;;48.50;22.10;;;;;;;6.58;100.00;99629.78;4883529;29;20078;-78
2023/12/13 02:46:35;;;;;;;46.42;21.42;;;;;;;6.58;100.00;99628.03;4904101;29;20055;-78
2023/12/13 02:49:03;;;;;;;64.45;23.42;;;;;;;6.60;100.00;99626.28;4918999;29;20499;-78
2023/12/13 02:51:30;;;;;;;52.13;23.45;;;;;;;6.60;100.00;99631.50;4931134;29;20702;-78
2023/12/13 02:53:58;;;;;;;62.55;24.73;;;;;;;6.61;100.00;99629.75;4947810;29;20051;-78
2023/12/13 02:56:25;;;;;;;57.72;23.50;;;;;;;6.62;100.00;99636.75;4900200;29;20058;-78
2023/12/13 02:58:53;;;;;;;63.50;26.08;;;;;;;6.62;100.00;99626.28;4938573;29;20044;-77
2023/12/13 03:01:20;;;;;;;61.25;26.08;;;;;;;6.61;100.00;99630.63;4912612;29;20043;-78
2023/12/13 03:03:48;;;;;;;59.67;26.45;;;;;;;6.62;100.00;99624.53;4907349;29;20603;-78
2023/12/13 03:06:15;;;;;;;66.65;27.23;;;;;;;6.63;100.00;99628.91;4899740;29;20062;-78
2023/12/13 03:08:42;;;;;;;60.80;26.75;;;;;;;6.64;100.00;99627.16;4930134;29;20497;-78
2023/12/13 03:11:10;;;;;;;61.35;27.42;;;;;;;6.63;100.00;99613.19;4928145;29;20047;-77
2023/12/13 03:13:37;;;;;;;53.63;25.52;;;;;;;6.64;100.00;99619.28;4947297;29;20047;-78
2023/12/13 03:16:06;;;;;;;44.65;20.38;;;;;;;6.66;100.00;99614.94;4896680;29;20597;-77
2023/12/13 03:18:34;;;;;;;52.60;21.40;;;;;;;6.66;100.00;99621.91;4897931;29;20051;-77
2023/12/13 03:21:01;;;;;;;55.33;21.42;;;;;;;6.65;100.00;99610.53;4915670;29;20051;-77
2023/12/13 03:23:28;;;;;;;55.20;23.83;;;;;;;6.68;100.00;99615.78;4937360;29;20059;-77
2023/12/13 03:25:56;;;;;;;57.58;25.75;;;;;;;6.67;100.00;99618.41;4933515;29;20625;-77
2023/12/13 03:28:23;;;;;;;71.22;26.65;;;;;;;6.68;100.00;99614.94;4960925;28;20051;-77
2023/12/13 03:30:50;;;;;;;71.07;28.10;;;;;;;6.68;100.00;99623.66;4898769;29;20047;-78
2023/12/13 03:33:18;;;;;;;77.30;29.70;;;;;;;6.68;100.00;99613.19;4883584;29;20086;-78
2023/12/13 03:35:45;;;;;;;74.60;30.63;;;;;;;6.69;100.00;99617.56;4931147;29;20390;-77
2023/12/13 03:38:13;;;;;;;103.50;32.28;;;;;;;6.69;100.00;99620.16;4940110;29;20055;-78
2023/12/13 03:40:40;;;;;;;92.60;31.33;;;;;;;6.69;100.00;99617.56;4948237;29;20047;-78
2023/12/13 03:43:08;;;;;;;74.47;30.00;;;;;;;6.69;100.00;99608.81;4933099;29;20043;-77
2023/12/13 03:45:35;;;;;;;69.65;29.73;;;;;;;6.70;100.00;99618.41;4938174;29;20039;-78
2023/12/13 03:48:03;;;;;;;93.25;31.58;;;;;;;6.70;100.00;99614.03;4894429;29;20393;-79
2023/12/13 03:50:31;;;;;;;75.55;29.08;;;;;;;6.71;100.00;99609.66;4944459;29;20051;-78
2023/12/13 03:52:58;;;;;;;94.85;31.73;;;;;;;6.71;100.00;99607.94;4929152;28;20055;-77
2023/12/13 03:55:25;;;;;;;83.53;30.30;;;;;;;6.72;100.00;99603.56;4912576;29;20047;-77
2023/12/13 03:57:53;;;;;;;51.22;21.58;;;;;;;6.71;100.00;99609.66;4945823;29;20043;-77
2023/12/13 04:00:20;;;;;;;45.55;21.77;;;;;;;6.72;100.00;99606.19;4929281;29;20047;-78
2023/12/13 04:02:48;;;;;;;63.63;23.77;;;;;;;6.73;100.00;99607.91;4866381;29;20062;-77
2023/12/13 04:05:15;;;;;;;58.05;27.42;;;;;;;6.73;100.00;99608.81;4898831;29;20559;-77
2023/12/13 04:07:43;;;;;;;73.15;25.35;;;;;;;6.73;100.00;99608.81;4946610;29;20512;-77
2023/12/13 04:10:10;;;;;;;62.03;25.38;;;;;;;6.73;100.00;99611.44;4927535;29;20811;-77
2023/12/13 04:12:38;;;;;;;57.33;25.50;;;;;;;6.74;100.00;99607.06;4946685;29;20055;-77
2023/12/13 04:15:06;;;;;;;68.57;26.50;;;;;;;6.74;100.00;99609.69;4928213;28;20043;-77
2023/12/13 04:17:33;;;;;;;80.80;30.35;;;;;;;6.73;100.00;99614.06;4907797;29;20043;-77
2023/12/13 04:20:01;;;;;;;91.95;29.33;;;;;;;6.73;100.00;99618.38;4888564;29;20062;-77
2023/12/13 04:22:28;;;;;;;70.72;28.65;;;;;;;6.73;100.00;99607.91;4953092;28;20409;-78
2023/12/13 04:24:56;;;;;;;95.15;31.05;;;;;;;6.73;100.00;99610.53;4939166;28;20054;-77
2023/12/13 04:27:23;;;;;;;94.85;33.50;;;;;;;6.74;100.00;99612.28;4948579;29;20413;-78
2023/12/13 04:29:50;;;;;;;80.90;28.95;;;;;;;6.74;100.00;99613.16;4932519;29;20046;-79
2023/12/13 04:32:18;;;;;;;63.50;24.83;;;;;;;6.75;100.00;99611.44;4915621;29;20079;-78
2023/12/13 04:34:46;;;;;;;59.90;25.42;;;;;;;6.74;100.00;99607.06;4895771;29;20390;-77
2023/12/13 04:37:13;;;;;;;64.20;26.27;;;;;;;6.74;100.00;99612.28;4908771;29;20055;-78
2023/12/13 04:39:40;;;;;;;58.35;25.70;;;;;;;6.74;100.00;99613.16;4933870;29;20063;-77
2023/12/13 04:42:08;;;;;;;68.03;26.50;;;;;;;6.73;100.00;99608.81;4930402;29;20047;-77
2023/12/13 04:44:35;;;;;;;70.78;27.25;;;;;;;6.74;100.00;99612.28;4901911;29;20055;-77
2023/12/13 04:47:02;;;;;;;65.20;26.60;;;;;;;6.74;100.00;99617.53;4930593;29;22227;-77
2023/12/13 04:49:31;;;;;;;69.30;27.05;;;;;;;6.74;100.00;99617.53;4887275;29;20047;-78
2023/12/13 04:51:59;;;;;;;74.20;28.38;;;;;;;6.74;100.00;99626.25;4894639;29;20501;-78
2023/12/13 04:54:26;;;;;;;69.28;24.65;;;;;;;6.74;100.00;99614.91;4934967;29;20063;-77
2023/12/13 04:56:53;;;;;;;67.50;25.20;;;;;;;6.73;100.00;99621.00;4931691;29;20063;-77
2023/12/13 04:59:21;;;;;;;80.88;27.08;;;;;;;6.73;100.00;99611.44;4931926;29;20452;-77
2023/12/13 05:01:48;;;;;;;70.32;27.05;;;;;;;6.73;100.00;99619.28;4913401;29;20055;-78
2023/12/13 05:04:16;;;;;;;73.55;28.10;;;;;;;6.75;100.00;99614.06;4936521;29;21144;-78
2023/12/13 05:06:43;;;;;;;74.00;27.08;;;;;;;6.74;100.00;99615.78;4901778;28;20489;-77
2023/12/13 05:09:10;;;;;;;76.30;29.40;;;;;;;6.74;100.00;99617.53;4926474;29;20051;-78
2023/12/13 05:11:38;;;;;;;71.32;29.48;;;;;;;6.74;100.00;99621.00;4923186;29;20095;-78
2023/12/13 05:14:05;;;;;;;70.25;28.75;;;;;;;6.74;100.00;99617.53;4929241;29;20043;-78
2023/12/13 05:16:32;;;;;;;90.40;29.92;;;;;;;6.75;100.00;99616.69;4885573;29;20500;-78
2023/12/13 05:19:00;;;;;;;81.93;31.25;;;;;;;6.73;100.00;99608.81;4913283;29;20051;-78
2023/12/13 05:21:28;;;;;;;76.85;30.02;;;;;;;6.75;100.00;99616.69;4862935;29;20416;-78
2023/12/13 05:23:55;;;;;;;61.15;27.52;;;;;;;6.74;100.00;99617.53;4912515;29;20520;-78
2023/12/13 05:26:22;;;;;;;61.20;25.83;;;;;;;6.74;100.00;99621.00;4948163;28;20063;-77
2023/12/13 05:28:50;;;;;;;73.53;23.05;;;;;;;6.75;100.00;99627.16;4910110;29;20063;-78
2023/12/13 05:31:22;;;;;;;51.35;18.42;;;;;;;6.74;100.00;99623.63;4920868;29;20548;-78
2023/12/13 05:33:50;;;;;;;52.70;17.55;;;;;;;6.75;100.00;99617.53;4894067;29;20063;-77
2023/12/13 05:36:20;;;;;;;42.10;17.73;;;;;;;6.75;100.00;99621.91;4891485;29;20048;-78
2023/12/13 05:38:47;;;;;;;54.17;18.67;;;;;;;6.74;100.00;99621.00;4904979;29;20412;-77
2023/12/13 05:41:14;;;;;;;48.60;17.25;;;;;;;6.74;100.00;99620.16;4927288;29;20054;-77
2023/12/13 05:43:41;;;;;;;41.58;18.23;;;;;;;6.74;100.00;99628.00;4928097;29;20055;-77
2023/12/13 05:46:09;;;;;;;41.17;17.40;;;;;;;6.74;100.00;99625.38;4926087;29;20149;-77
2023/12/13 05:48:36;;;;;;;43.53;17.65;;;;;;;6.73;100.00;99623.63;4912989;29;20433;-77
2023/12/13 05:51:04;;;;;;;42.58;18.05;;;;;;;6.73;100.00;99623.63;4889702;29;20051;-77
2023/12/13 05:53:31;;;;;;;47.50;17.83;;;;;;;6.73;100.00;99632.38;4888965;29;20051;-77
2023/12/13 05:56:00;;;;;;;45.58;18.88;;;;;;;6.73;100.00;99631.47;4927603;29;20058;-78
2023/12/13 05:58:29;;;;;;;44.85;18.17;;;;;;;6.72;100.00;99627.13;4947057;29;20452;-78
2023/12/13 06:00:57;;;;;;;54.88;20.88;;;;;;;6.72;100.00;99632.38;4945378;29;20047;-77
2023/12/13 06:03:25;;;;;;;50.90;20.60;;;;;;;6.72;100.00;99633.25;4882877;29;20421;-77
2023/12/13 06:05:54;;;;;;;53.38;22.48;;;;;;;6.73;100.00;99628.88;4944034;28;20075;-78
2023/12/13 06:08:22;;;;;;;57.50;22.15;;;;;;;6.73;100.00;99634.09;4907256;28;20504;-76
2023/12/13 06:10:49;;;;;;;58.78;22.85;;;;;;;6.73;100.00;99631.47;4894071;29;20054;-78
2023/12/13 06:13:17;;;;;;;60.08;23.02;;;;;;;6.75;100.00;99645.47;4944440;28;20043;-77
2023/12/13 06:15:46;;;;;;;64.40;25.35;;;;;;;6.73;100.00;99635.00;4927647;29;20043;-78
2023/12/13 06:18:13;;;;;;;62.50;22.30;;;;;;;6.75;100.00;99640.25;4908739;28;20055;-78
2023/12/13 06:20:41;;;;;;;41.72;20.10;;;;;;;6.74;100.00;99638.47;4930308;29;20387;-78
2023/12/13 06:23:08;;;;;;;45.20;19.13;;;;;;;6.75;100.00;99641.09;4914132;28;20040;-78
2023/12/13 06:25:35;;;;;;;51.67;18.98;;;;;;;6.75;100.00;99646.34;4895400;29;20062;-78
2023/12/13 06:28:04;;;;;;;47.95;18.55;;;;;;;6.75;100.00;99635.00;4892964;29;20059;-78
2023/12/13 06:30:31;;;;;;;56.22;19.35;;;;;;;6.76;100.00;99644.59;4929068;29;20062;-78
2023/12/13 06:33:02;;;;;;;51.90;19.92;;;;;;;6.75;100.00;99643.72;4912172;29;20047;-78
2023/12/13 06:35:29;;;;;;;53.90;20.33;;;;;;;6.76;100.00;99642.84;4883296;29;20058;-76
2023/12/13 06:37:57;;;;;;;49.35;18.60;;;;;;;6.77;100.00;99655.06;4892678;29;20063;-77
2023/12/13 06:40:24;;;;;;;51.03;22.27;;;;;;;6.75;100.00;99651.56;4913224;29;20046;-77
2023/12/13 06:42:52;;;;;;;54.78;20.35;;;;;;;6.78;100.00;99648.06;4918044;29;20132;-77
2023/12/13 06:45:20;;;;;;;73.43;22.83;;;;;;;6.77;100.00;99659.44;4908894;29;20055;-77
2023/12/13 06:47:48;;;;;;;54.58;23.05;;;;;;;6.77;100.00;99657.69;4922725;29;20046;-78
2023/12/13 06:50:16;;;;;;;56.40;23.10;;;;;;;6.79;100.00;99649.84;4928003;29;20543;-77
2023/12/13 06:52:47;;;;;;;56.42;24.27;;;;;;;6.79;100.00;99660.31;4851597;29;20047;-77
2023/12/13 06:55:17;;;;;;;50.97;22.02;;;;;;;6.79;100.00;99655.94;4927642;29;20066;-77
2023/12/13 06:57:45;;;;;;;47.92;22.02;;;;;;;6.79;100.00;99662.94;4889403;29;20051;-78
2023/12/13 07:00:13;;;;;;;43.67;20.42;;;;;;;6.79;100.00;99676.00;4919255;29;20062;-77
2023/12/13 07:02:40;;;;;;;49.38;21.05;;;;;;;6.80;100.00;99672.50;4938001;28;20039;-76
2023/12/13 07:05:08;;;;;;;64.22;23.80;;;;;;;6.79;100.00;99671.63;4894978;29;20059;-78
2023/12/13 07:07:36;;;;;;;58.22;25.10;;;;;;;6.80;100.00;99672.50;4936578;29;20059;-77
2023/12/13 07:10:04;;;;;;;52.15;23.83;;;;;;;6.79;100.00;99671.63;4894222;29;20462;-78
2023/12/13 07:12:31;;;;;;;35.22;16.75;;;;;;;6.80;100.00;99669.88;4886882;28;20412;-76
2023/12/13 07:14:59;;;;;;;34.05;17.85;;;;;;;6.80;100.00;99678.59;4911415;29;20521;-81
2023/12/13 07:17:27;;;;;;;65.47;25.48;;;;;;;6.80;100.00;99676.00;4904797;29;20052;-76
2023/12/13 07:19:54;;;;;;;68.85;25.88;;;;;;;6.82;100.00;99681.22;4921004;29;20459;-77
2023/12/13 07:22:22;;;;;;;38.10;16.58;;;;;;;6.80;100.00;99681.22;4904721;29;20074;-77
2023/12/13 07:24:49;;;;;;;44.10;15.15;;;;;;;6.80;100.00;99677.75;4880603;29;20693;-76
2023/12/13 07:27:16;;;;;;;44.10;18.60;;;;;;;6.81;100.00;99679.50;4884598;28;20052;-77
2023/12/13 07:29:44;;;;;;;46.75;18.90;;;;;;;6.80;100.00;99688.22;4908826;29;20056;-76
2023/12/13 07:32:11;;;;;;;48.88;19.17;;;;;;;6.80;100.00;99694.31;4910867;29;20544;-77
2023/12/13 07:34:41;;;;;;;57.22;20.35;;;;;;;6.81;100.00;99700.44;4901735;29;20101;-77
2023/12/13 07:37:08;;;;;;;63.58;20.55;;;;;;;6.81;100.00;99695.22;4936197;28;20055;-76
2023/12/13 07:39:36;;;;;;;47.67;18.60;;;;;;;6.80;100.00;99696.94;4901262;29;20527;-76
2023/12/13 07:42:04;;;;;;;57.47;22.27;;;;;;;6.79;100.00;99697.81;4908892;29;20055;-77
2023/12/13 07:44:33;;;;;;;73.68;25.20;;;;;;;6.81;100.00;99700.44;4921475;29;20524;-76
2023/12/13 07:47:00;;;;;;;67.85;25.10;;;;;;;6.80;100.00;99704.78;4904467;29;20059;-76
2023/12/13 07:49:28;;;;;;;60.72;22.85;;;;;;;6.82;100.00;99707.41;4901320;29;20067;-76
2023/12/13 07:51:56;;;;;;;49.28;22.85;;;;;;;6.81;100.00;99706.56;4929677;29;20067;-77
2023/12/13 07:54:23;;;;;;;66.15;26.27;;;;;;;6.82;100.00;99712.66;4902000;29;20480;-77
2023/12/13 07:56:52;;;;;;;56.03;22.27;;;;;;;6.81;100.00;99705.69;4910666;28;20063;-76
2023/12/13 07:59:19;;;;;;;58.30;24.25;;;;;;;6.81;100.00;99713.53;4889918;29;20052;-77
2023/12/13 08:01:48;;;;;;;70.57;27.33;;;;;;;6.82;100.00;99717.88;4912593;29;20055;-77
2023/12/13 08:04:16;;;;;;;58.03;23.67;;;;;;;6.83;100.00;99714.41;4942378;29;20533;-76
2023/12/13 08:06:43;;;;;;;76.38;27.73;;;;;;;6.85;100.00;99719.66;4934433;29;20493;-77
2023/12/13 08:09:10;;;;;;;60.90;25.98;;;;;;;6.84;100.00;99724.00;4883366;29;20774;-77
2023/12/13 08:11:38;;;;;;;65.90;26.80;;;;;;;6.86;100.00;99721.38;4901883;29;20055;-76
2023/12/13 08:14:06;;;;;;;81.60;26.60;;;;;;;6.86;100.00;99724.00;4892900;29;20401;-77
2023/12/13 08:16:33;;;;;;;61.97;23.27;;;;;;;6.85;100.00;99723.13;4936692;29;20040;-77
2023/12/13 08:19:01;;;;;;;67.85;26.83;;;;;;;6.88;100.00;99730.13;4930065;29;20057;-77
2023/12/13 08:21:29;;;;;;;76.60;25.70;;;;;;;6.87;100.00;99734.50;4901704;29;20062;-77
2023/12/13 08:23:57;;;;;;;115.45;29.45;;;;;;;6.87;100.00;99734.50;4937874;28;20055;-77
2023/12/13 08:26:27;;;;;;;91.78;29.80;;;;;;;6.88;100.00;99730.13;4947351;28;20062;-77
2023/12/13 08:28:54;;;;;;;40.13;20.48;;;;;;;6.88;100.00;99735.34;4876580;29;20063;-76
2023/12/13 08:31:33;;;;;;;47.05;21.58;;;;;;;6.90;100.00;99730.97;4922620;29;20047;-76
2023/12/13 08:34:00;;;;;;;47.35;21.85;;;;;;;6.89;100.00;99739.72;4928713;29;20520;-76
2023/12/13 08:36:28;;;;;;;55.70;21.40;;;;;;;6.90;100.00;99744.97;4910662;29;20437;-76
2023/12/13 08:38:57;;;;;;;54.67;22.92;;;;;;;6.90;100.00;99742.34;4893548;28;20051;-77
2023/12/13 08:41:24;;;;;;;56.05;25.25;;;;;;;6.91;100.00;99749.31;4906999;29;20059;-77
2023/12/13 08:43:51;;;;;;;53.90;24.10;;;;;;;6.93;100.00;99749.31;4882359;29;20071;-76
2023/12/13 08:46:19;;;;;;;46.70;22.98;;;;;;;6.93;100.00;99758.06;4886140;29;20055;-78
2023/12/13 08:48:46;;;;;;;52.42;23.35;;;;;;;6.93;100.00;99747.56;4930941;29;20055;-81
2023/12/13 08:51:14;;;;;;;55.40;23.73;;;;;;;6.94;100.00;99748.47;4908870;29;20039;-77
2023/12/13 08:53:42;;;;;;;86.45;24.50;;;;;;;6.95;100.00;99755.44;4933384;29;20036;-77
2023/12/13 08:56:09;;;;;;;63.80;26.30;;;;;;;6.94;100.00;99757.19;4933255;29;20051;-77
2023/12/13 08:58:37;;;;;;;59.45;27.38;;;;;;;6.95;100.00;99763.28;4911161;28;20048;-76
2023/12/13 09:01:04;;;;;;;62.38;29.00;;;;;;;6.97;100.00;99759.78;4896763;29;20050;-78
2023/12/13 09:03:32;;;;;;;58.17;24.40;;;;;;;6.97;100.00;99762.41;4927419;29;20051;-77
2023/12/13 09:06:00;;;;;;;48.72;23.02;;;;;;;6.98;100.00;99771.16;4928497;29;20513;-77
2023/12/13 09:08:27;;;;;;;51.33;23.52;;;;;;;6.98;100.00;99777.28;4911297;29;20051;-77
2023/12/13 09:10:55;;;;;;;56.72;25.00;;;;;;;6.99;100.00;99771.19;4919083;29;20629;-77
2023/12/13 09:13:22;;;;;;;49.20;22.60;;;;;;;7.00;100.00;99777.28;4917378;29;20233;-77
2023/12/13 09:15:50;;;;;;;55.50;24.42;;;;;;;7.01;100.00;99776.38;4916902;29;20054;-77
2023/12/13 09:18:17;;;;;;;55.53;24.38;;;;;;;7.03;100.00;99786.00;4921787;29;20038;-77
2023/12/13 09:20:45;;;;;;;61.05;26.05;;;;;;;7.03;100.00;99780.78;4931412;29;20369;-78
2023/12/13 09:23:23;;;;;;;50.53;23.33;;;;;;;7.05;100.00;99782.50;4911137;29;20043;-77
2023/12/13 09:25:52;;;;;;;54.78;25.00;;;;;;;7.05;100.00;99783.41;4913397;29;20043;-77
2023/12/13 09:28:19;;;;;;;63.33;26.13;;;;;;;7.06;100.00;99785.13;4869887;29;20062;-77
2023/12/13 09:30:47;;;;;;;56.17;26.20;;;;;;;7.08;100.00;99790.38;4915761;29;20054;-77
2023/12/13 09:33:15;;;;;;;60.90;26.80;;;;;;;7.09;100.00;99792.09;4886632;29;20047;-77
2023/12/13 09:35:43;;;;;;;48.10;22.75;;;;;;;7.10;100.00;99796.50;4899561;29;20051;-77
2023/12/13 09:38:11;;;;;;;61.50;24.95;;;;;;;7.11;100.00;99798.25;4925335;29;20055;-77
2023/12/13 09:40:38;;;;;;;55.08;23.80;;;;;;;7.11;100.00;99799.13;4944124;28;20401;-78
2023/12/13 09:43:06;;;;;;;63.22;25.75;;;;;;;7.14;100.00;99803.47;4903821;29;20050;-77
2023/12/13 09:45:34;;;;;;;52.20;25.85;;;;;;;7.14;100.00;99811.34;4871677;29;20066;-77
2023/12/13 09:48:02;;;;;;;62.08;26.13;;;;;;;7.14;100.00;99801.72;4904085;29;20063;-78
2023/12/13 09:50:34;;;;;;;67.07;27.25;;;;;;;7.13;100.00;99806.97;4928980;28;20553;-78
2023/12/13 09:53:04;;;;;;;61.67;27.10;;;;;;;7.10;100.00;99812.22;4914270;29;20051;-77
2023/12/13 09:55:35;;;;;;;43.67;23.92;;;;;;;7.04;100.00;99813.06;4944238;29;20869;-78
2023/12/13 09:58:04;;;;;;;49.47;25.00;;;;;;;6.97;100.00;99812.19;4919558;29;20485;-77
2023/12/13 10:00:31;;;;;;;45.38;21.85;;;;;;;6.92;100.00;99811.31;4922194;29;20058;-78
2023/12/13 10:02:58;;;;;;;36.15;17.90;;;;;;;6.88;100.00;99814.81;4929219;29;20051;-77
2023/12/13 10:05:28;;;;;;;39.45;18.20;;;;;;;6.86;100.00;99813.91;4884881;29;20058;-77
2023/12/13 10:08:01;;;;;;;30.38;15.85;;;;;;;6.85;100.00;99820.03;4913607;29;20055;-78
2023/12/13 10:10:31;;;;;;;29.17;15.32;;;;;;;6.83;100.00;99822.66;4928666;29;20043;-77
2023/12/13 10:13:01;;;;;;;32.90;15.93;;;;;;;6.82;100.00;99822.63;4928256;28;20063;-78
2023/12/13 10:15:32;;;;;;;35.10;16.92;;;;;;;6.83;100.00;99835.75;4882966;29;20057;-77
2023/12/13 10:18:03;;;;;;;38.58;15.63;;;;;;;6.83;100.00;99840.09;4927717;29;20549;-77
2023/12/13 10:20:31;;;;;;;31.25;15.45;;;;;;;6.85;100.00;99832.25;4920350;29;20051;-78
2023/12/13 10:23:01;;;;;;;38.08;17.33;;;;;;;6.86;100.00;99839.22;4928574;29;20062;-77
2023/12/13 10:25:29;;;;;;;39.83;16.73;;;;;;;6.87;100.00;99835.75;4945225;28;20059;-77
2023/12/13 10:27:57;;;;;;;36.63;16.70;;;;;;;6.87;100.00;99847.09;4929220;29;20078;-77
2023/12/13 10:30:25;;;;;;;30.42;14.65;;;;;;;6.88;100.00;99845.34;4891843;29;20051;-77
2023/12/13 10:32:52;;;;;;;26.48;14.35;;;;;;;6.89;100.00;99850.59;4929396;29;20074;-78
2023/12/13 10:35:22;;;;;;;28.65;13.23;;;;;;;6.91;100.00;99845.34;4883668;29;20078;-77
2023/12/13 10:37:51;;;;;;;21.03;10.53;;;;;;;6.93;100.00;99859.34;4916799;29;20530;-77
2023/12/13 10:40:20;;;;;;;21.60;10.32;;;;;;;6.92;100.00;99850.59;4943269;29;20291;-77
2023/12/13 10:42:52;;;;;;;17.20;9.30;;;;;;;6.89;100.00;99853.22;4929767;29;20047;-78
2023/12/13 10:45:22;;;;;;;15.65;8.80;;;;;;;6.87;100.00;99854.94;4875305;29;20062;-78
2023/12/13 10:47:58;;;;;;;13.57;8.50;;;;;;;6.85;100.00;99850.59;4911919;29;20066;-78
2023/12/13 10:50:27;;;;;;;14.85;8.55;;;;;;;6.82;100.00;99854.97;4898687;29;20311;-78
2023/12/13 10:52:56;;;;;;;13.07;7.63;;;;;;;6.81;100.00;99858.44;4909003;29;20517;-77
2023/12/13 10:55:25;;;;;;;12.75;7.90;;;;;;;6.80;100.00;99854.06;4910117;29;20568;-77
2023/12/13 10:57:53;;;;;;;13.00;7.75;;;;;;;6.81;100.00;99868.03;4929483;29;20052;-77
2023/12/13 11:00:24;;;;;;;12.30;7.47;;;;;;;6.78;100.00;99857.53;4917070;29;20969;-77
2023/12/13 11:02:56;;;;;;;;;;;;;;;6.74;100.00;99859.28;4901646;28;20047;-77
2023/12/13 11:05:24;;;;;;;13.48;6.85;;;;;;;6.72;100.00;99863.63;4911433;29;19937;-77
2023/12/13 11:07:52;;;;;;;11.50;6.75;;;;;;;6.74;100.00;99863.66;4877353;28;20058;-79
2023/12/13 11:10:22;;;;;;;11.52;6.07;;;;;;;6.75;100.00;99868.03;4911762;29;20047;-77
2023/12/13 11:12:52;;;;;;;13.13;6.88;;;;;;;6.73;100.00;99873.25;4924222;29;20429;-77
2023/12/13 11:15:19;;;;;;;8.35;5.60;;;;;;;6.75;100.00;99873.25;4931137;29;20051;-77
2023/12/13 11:17:54;;;;;;;8.95;5.80;;;;;;;6.75;100.00;99871.50;4894923;29;20051;-77
2023/12/13 11:20:22;;;;;;;8.57;5.20;;;;;;;6.73;100.00;99885.44;4927704;29;20039;-77